Time;durP1;ratioP1;P1;durP2;ratioP2;P2;SDS_P1;SDS_P2;PMS_P1;PMS_P2;Temp;Humidity;BMP_temperature;BMP_pressure;BME280_temperature;BME280_humidity;BME280_pressure;Samples;Min_cycle;Max_cycle;Signal;HPM_P1;HPM_P2
2021/06/03 00:02:04;;;;;;;4.37;3.97;;;24.30;52.80;;;;;;5117719;28;20457;-71
2021/06/03 00:04:31;;;;;;;4.40;4.00;;;24.30;53.10;;;;;;5117569;28;20475;-71
2021/06/03 00:06:57;;;;;;;7.53;3.80;;;24.30;53.20;;;;;;5117477;28;20440;-71
2021/06/03 00:09:23;;;;;;;5.80;4.30;;;24.30;53.10;;;;;;5117334;28;20467;-71
2021/06/03 00:11:50;;;;;;;4.40;4.10;;;24.10;53.40;;;;;;5117371;28;20450;-71
2021/06/03 00:14:16;;;;;;;4.40;3.60;;;24.10;53.40;;;;;;5118366;28;20462;-71
2021/06/03 00:16:44;;;;;;;9.77;4.40;;;24.00;53.30;;;;;;5117237;28;20443;-71
2021/06/03 00:19:12;;;;;;;4.00;3.70;;;23.90;53.40;;;;;;5117143;28;20466;-71
2021/06/03 00:21:41;;;;;;;4.40;4.00;;;23.90;53.60;;;;;;5117119;28;20451;-71
2021/06/03 00:24:08;;;;;;;4.00;3.70;;;23.80;53.60;;;;;;5116987;28;20474;-71
2021/06/03 00:26:34;;;;;;;5.20;4.13;;;23.70;53.40;;;;;;5117103;28;20431;-71
2021/06/03 00:29:01;;;;;;;4.80;4.30;;;23.60;54.20;;;;;;5117018;28;20527;-71
2021/06/03 00:31:28;;;;;;;4.90;3.57;;;23.50;54.30;;;;;;5116960;28;20443;-71
2021/06/03 00:33:55;;;;;;;6.60;3.93;;;23.50;54.30;;;;;;5116892;28;20472;-71
2021/06/03 00:36:22;;;;;;;3.60;3.30;;;23.40;54.30;;;;;;5116884;28;20496;-71
2021/06/03 00:38:48;;;;;;;3.97;3.67;;;23.50;54.30;;;;;;5116470;28;20932;-71
2021/06/03 00:41:15;;;;;;;4.17;3.80;;;23.50;54.10;;;;;;5116745;28;20462;-71
2021/06/03 00:43:41;;;;;;;4.60;4.10;;;23.50;54.20;;;;;;5116340;28;20951;-71
2021/06/03 00:46:08;;;;;;;4.03;3.70;;;23.60;54.00;;;;;;5116657;28;20441;-71
2021/06/03 00:48:35;;;;;;;5.90;3.83;;;23.50;54.00;;;;;;5116565;28;20490;-71
2021/06/03 00:51:05;;;;;;;4.13;3.73;;;23.50;54.20;;;;;;5116549;28;20423;-71
2021/06/03 00:53:33;;;;;;;5.53;4.40;;;23.40;54.20;;;;;;5117362;28;20438;-71
2021/06/03 00:56:00;;;;;;;5.17;4.40;;;23.40;54.30;;;;;;5116993;28;20492;-71
2021/06/03 00:58:26;;;;;;;4.20;3.77;;;23.40;54.50;;;;;;5116856;28;20494;-71
2021/06/03 01:00:54;;;;;;;5.73;3.50;;;23.40;54.50;;;;;;5116453;28;20423;-71
2021/06/03 01:03:23;;;;;;;5.10;3.83;;;23.40;54.60;;;;;;5116347;28;20439;-71
2021/06/03 01:05:50;;;;;;;4.23;3.83;;;23.40;54.60;;;;;;5115137;28;20979;-71
2021/06/03 01:08:21;;;;;;;4.83;4.33;;;23.40;54.50;;;;;;5116154;28;20458;-71
2021/06/03 01:10:53;;;;;;;4.27;3.97;;;23.40;54.40;;;;;;5116230;28;20435;-71
2021/06/03 01:13:27;;;;;;;4.30;4.00;;;23.40;54.40;;;;;;5116262;28;20427;-71
2021/06/03 01:15:54;;;;;;;4.33;3.93;;;23.50;54.40;;;;;;5115779;28;20428;-71
2021/06/03 01:18:21;;;;;;;3.80;3.50;;;23.50;54.40;;;;;;5115942;28;20516;-70
2021/06/03 01:20:49;;;;;;;4.40;3.80;;;23.50;54.20;;;;;;5115724;28;20940;-71
2021/06/03 01:23:24;;;;;;;5.43;4.37;;;23.50;54.20;;;;;;5115948;28;20444;-71
2021/06/03 01:25:52;;;;;;;5.50;4.30;;;23.50;54.50;;;;;;5115926;28;20821;-71
2021/06/03 01:28:19;;;;;;;5.13;3.53;;;23.50;54.70;;;;;;5115729;28;20466;-71
2021/06/03 01:30:49;;;;;;;5.20;3.93;;;23.50;55.00;;;;;;5115821;28;20451;-71
2021/06/03 01:33:18;;;;;;;9.10;3.87;;;23.40;55.10;;;;;;5115477;28;20921;-71
2021/06/03 01:35:48;;;;;;;5.33;3.97;;;23.40;55.30;;;;;;5115585;28;20933;-71
2021/06/03 01:38:18;;;;;;;5.23;3.37;;;23.30;54.60;;;;;;5115641;28;20523;-71
2021/06/03 01:40:47;;;;;;;6.20;4.10;;;23.40;54.70;;;;;;5115615;28;20463;-71
2021/06/03 01:43:16;;;;;;;5.20;3.70;;;23.40;55.00;;;;;;5115243;28;20964;-71
2021/06/03 01:45:44;;;;;;;7.03;3.80;;;23.40;54.30;;;;;;5115178;28;21000;-71
2021/06/03 01:48:13;;;;;;;5.30;3.27;;;23.40;54.40;;;;;;5115392;28;20513;-71
2021/06/03 01:50:41;;;;;;;5.73;4.03;;;23.40;54.60;;;;;;5115379;28;20465;-71
2021/06/03 01:53:08;;;;;;;4.90;4.13;;;23.30;54.70;;;;;;5115318;28;20492;-71
2021/06/03 01:55:35;;;;;;;6.93;4.10;;;23.30;54.80;;;;;;5115228;28;20442;-71
2021/06/03 01:58:02;;;;;;;5.70;4.10;;;23.20;54.90;;;;;;5114669;28;21010;-71
2021/06/03 02:00:31;;;;;;;10.17;5.00;;;23.10;55.30;;;;;;5115215;28;20431;-71
2021/06/03 02:02:58;;;;;;;5.20;3.93;;;23.10;55.50;;;;;;5114997;28;20936;-71
2021/06/03 02:05:25;;;;;;;6.70;4.00;;;23.10;55.50;;;;;;5115003;28;20475;-71
2021/06/03 02:07:51;;;;;;;5.60;3.50;;;23.10;55.60;;;;;;5114931;28;20474;-71
2021/06/03 02:10:19;;;;;;;6.03;3.93;;;23.00;55.60;;;;;;5115000;28;20525;-71
2021/06/03 02:12:49;;;;;;;8.03;4.00;;;23.00;56.10;;;;;;5114933;28;20511;-71
2021/06/03 02:15:17;;;;;;;5.40;3.47;;;23.00;56.10;;;;;;5114935;28;20491;-71
2021/06/03 02:17:47;;;;;;;4.63;4.10;;;23.00;56.30;;;;;;5113790;28;20458;-70
2021/06/03 02:20:16;;;;;;;5.03;4.23;;;23.00;56.40;;;;;;5115030;27;20438;-71
2021/06/03 02:22:48;;;;;;;8.30;3.90;;;22.90;56.30;;;;;;5114964;28;20443;-71
2021/06/03 02:25:15;;;;;;;7.53;3.50;;;22.90;56.30;;;;;;5114910;28;20463;-71
2021/06/03 02:27:44;;;;;;;5.53;3.97;;;22.80;56.30;;;;;;5114674;28;20467;-71
2021/06/03 02:30:11;;;;;;;4.03;3.70;;;22.80;56.70;;;;;;5114789;28;20459;-71
2021/06/03 02:32:38;;;;;;;4.00;3.30;;;22.80;57.30;;;;;;5114986;28;20446;-71
2021/06/03 02:35:10;;;;;;;4.50;3.97;;;22.80;56.60;;;;;;5114525;28;20437;-71
2021/06/03 02:37:38;;;;;;;5.70;3.67;;;22.80;56.50;;;;;;5114542;28;20524;-70
2021/06/03 02:40:07;;;;;;;4.17;3.87;;;22.80;56.50;;;;;;5114399;27;20451;-71
2021/06/03 02:42:34;;;;;;;3.97;3.67;;;22.80;56.60;;;;;;5114334;28;20455;-71
2021/06/03 02:45:00;;;;;;;4.37;3.97;;;22.80;56.60;;;;;;5114273;28;20832;-71
2021/06/03 02:47:27;;;;;;;4.97;4.03;;;22.80;56.30;;;;;;5114241;28;20459;-70
2021/06/03 02:49:53;;;;;;;4.67;3.97;;;22.80;56.50;;;;;;5114308;28;20454;-71
2021/06/03 02:52:21;;;;;;;4.13;3.63;;;22.80;56.30;;;;;;5114282;28;20446;-71
2021/06/03 02:54:47;;;;;;;4.40;4.00;;;22.80;56.40;;;;;;5114253;28;20443;-71
2021/06/03 02:57:13;;;;;;;4.30;3.80;;;22.80;56.60;;;;;;5114129;28;20447;-70
2021/06/03 02:59:39;;;;;;;4.73;3.90;;;22.80;56.90;;;;;;5113843;28;20450;-70
2021/06/03 03:02:06;;;;;;;4.43;4.03;;;22.80;57.00;;;;;;5114086;28;20451;-70
2021/06/03 03:04:32;;;;;;;4.30;3.90;;;22.80;57.00;;;;;;5114212;28;20467;-70
2021/06/03 03:06:58;;;;;;;4.50;4.10;;;22.80;57.20;;;;;;5114145;28;20446;-70
2021/06/03 03:09:26;;;;;;;4.10;3.80;;;22.70;57.30;;;;;;5113962;28;20469;-71
2021/06/03 03:11:52;;;;;;;5.03;4.63;;;22.70;57.30;;;;;;5114022;28;20447;-71
2021/06/03 03:14:18;;;;;;;4.93;4.50;;;22.70;57.40;;;;;;5113728;28;21010;-71
2021/06/03 03:16:44;;;;;;;4.40;4.10;;;22.70;57.60;;;;;;5113999;28;20447;-71
2021/06/03 03:19:11;;;;;;;4.70;4.30;;;22.60;57.60;;;;;;5113860;28;20467;-72
2021/06/03 03:21:37;;;;;;;4.43;4.13;;;22.60;57.60;;;;;;5113887;28;20438;-71
2021/06/03 03:24:04;;;;;;;4.90;4.53;;;22.60;57.80;;;;;;5113826;28;20850;-71
2021/06/03 03:26:31;;;;;;;5.50;4.80;;;22.50;58.00;;;;;;5113899;28;20439;-72
2021/06/03 03:28:57;;;;;;;5.47;4.97;;;22.50;57.90;;;;;;5115466;28;20458;-70
2021/06/03 03:31:25;;;;;;;5.90;5.30;;;22.40;58.00;;;;;;5118162;28;20447;-71
2021/06/03 03:33:51;;;;;;;5.77;5.27;;;22.40;58.10;;;;;;5118618;28;20453;-71
2021/06/03 03:36:17;;;;;;;5.83;5.27;;;22.40;58.80;;;;;;5118047;28;20489;-71
2021/06/03 03:38:44;;;;;;;5.70;5.20;;;22.30;58.50;;;;;;5117873;28;20462;-70
2021/06/03 03:41:10;;;;;;;8.43;4.63;;;22.30;58.70;;;;;;5117898;28;20438;-71
2021/06/03 03:43:38;;;;;;;5.97;5.23;;;22.30;58.70;;;;;;5117909;28;20431;-70
2021/06/03 03:46:04;;;;;;;6.93;4.87;;;22.30;58.80;;;;;;5117694;28;20485;-70
2021/06/03 03:48:30;;;;;;;5.00;4.40;;;22.20;58.80;;;;;;5117682;28;20523;-70
2021/06/03 03:50:57;;;;;;;4.73;3.70;;;22.30;58.60;;;;;;5117754;28;20442;-70
2021/06/03 03:53:23;;;;;;;5.13;4.20;;;22.30;58.60;;;;;;5117486;28;20952;-70
2021/06/03 03:55:49;;;;;;;4.57;4.10;;;22.30;58.80;;;;;;5117345;28;20439;-70
2021/06/03 03:58:15;;;;;;;4.73;4.23;;;22.30;59.00;;;;;;5117382;28;20469;-70
2021/06/03 04:00:43;;;;;;;6.43;4.03;;;22.30;59.00;;;;;;5117646;28;20411;-70
2021/06/03 04:03:09;;;;;;;4.83;4.40;;;22.30;59.00;;;;;;5117500;28;20443;-71
2021/06/03 04:05:36;;;;;;;6.00;3.83;;;22.30;59.10;;;;;;5117419;28;20478;-71
2021/06/03 04:08:02;;;;;;;6.70;4.17;;;22.30;59.00;;;;;;5117343;28;20467;-71
2021/06/03 04:10:29;;;;;;;5.10;4.20;;;22.30;58.60;;;;;;5117350;28;20442;-71
2021/06/03 04:12:56;;;;;;;4.57;4.27;;;22.30;58.60;;;;;;5117301;28;20472;-71
2021/06/03 04:15:22;;;;;;;4.57;3.87;;;22.30;58.80;;;;;;5117239;28;20447;-71
2021/06/03 04:17:50;;;;;;;4.33;3.73;;;22.30;58.90;;;;;;5117169;28;20459;-70
2021/06/03 04:20:19;;;;;;;4.40;3.90;;;22.30;59.10;;;;;;5117143;28;20438;-72
2021/06/03 04:22:46;;;;;;;5.80;4.07;;;22.30;59.00;;;;;;5116976;28;20465;-72
2021/06/03 04:25:13;;;;;;;6.10;3.80;;;22.30;59.20;;;;;;5116813;28;20478;-72
2021/06/03 04:27:39;;;;;;;5.43;3.80;;;22.30;59.10;;;;;;5116850;28;20477;-71
2021/06/03 04:30:08;;;;;;;4.53;4.13;;;22.30;59.30;;;;;;5116782;28;20453;-72
2021/06/03 04:32:34;;;;;;;4.10;3.80;;;22.40;59.40;;;;;;5116740;28;20442;-72
2021/06/03 04:35:04;;;;;;;6.80;3.70;;;22.40;59.50;;;;;;5116617;28;20450;-72
2021/06/03 04:37:30;;;;;;;5.87;4.13;;;22.40;59.40;;;;;;5116609;28;20486;-71
2021/06/03 04:39:56;;;;;;;4.33;3.90;;;22.40;59.20;;;;;;5115177;28;20427;-71
2021/06/03 04:42:23;;;;;;;4.30;3.90;;;22.40;59.10;;;;;;5116628;28;20443;-71
2021/06/03 04:44:49;;;;;;;5.00;4.10;;;22.50;59.20;;;;;;5116234;28;20489;-72
2021/06/03 04:47:16;;;;;;;3.80;3.50;;;22.40;59.00;;;;;;5117020;28;20453;-71
2021/06/03 04:49:42;;;;;;;5.90;3.60;;;22.50;59.20;;;;;;5116614;28;20443;-72
2021/06/03 04:52:25;;;;;;;4.47;3.90;;;22.50;59.40;;;;;;5116203;28;20447;-71
2021/06/03 04:54:53;;;;;;;4.43;3.87;;;22.50;59.40;;;;;;5116610;28;20431;-71
2021/06/03 04:57:19;;;;;;;4.73;3.23;;;22.60;59.20;;;;;;5106518;28;20513;-71
2021/06/03 04:59:45;;;;;;;3.87;3.57;;;22.60;59.50;;;;;;5111669;28;20509;-72
2021/06/03 05:02:12;;;;;;;3.83;3.50;;;22.70;59.20;;;;;;5116050;28;20941;-72
2021/06/03 05:04:38;;;;;;;3.50;3.10;;;22.70;59.20;;;;;;5116300;28;20451;-71
2021/06/03 05:07:04;;;;;;;5.13;3.40;;;22.70;59.00;;;;;;5116335;28;20453;-71
2021/06/03 05:09:32;;;;;;;3.47;3.17;;;22.70;59.10;;;;;;5116308;28;20447;-71
2021/06/03 05:11:58;;;;;;;3.80;3.50;;;22.80;58.90;;;;;;5116130;28;20465;-72
2021/06/03 05:14:24;;;;;;;4.50;3.83;;;22.90;59.00;;;;;;5116103;28;20496;-72
2021/06/03 05:16:51;;;;;;;4.33;3.40;;;23.00;58.90;;;;;;5116240;28;20423;-71
2021/06/03 05:19:17;;;;;;;5.07;3.80;;;23.00;58.60;;;;;;5115962;28;20554;-71
2021/06/03 05:21:43;;;;;;;3.63;3.33;;;23.10;58.80;;;;;;5116097;28;20435;-71
2021/06/03 05:24:09;;;;;;;4.33;3.47;;;23.10;58.80;;;;;;5116043;28;20500;-71
2021/06/03 05:26:37;;;;;;;6.30;3.17;;;23.00;58.50;;;;;;5115906;28;20485;-72
2021/06/03 05:29:03;;;;;;;4.07;3.70;;;23.00;58.60;;;;;;5115952;28;20849;-72
2021/06/03 05:31:30;;;;;;;3.63;3.23;;;23.10;59.20;;;;;;5115883;28;20455;-72
2021/06/03 05:33:56;;;;;;;3.63;3.33;;;23.10;59.00;;;;;;5115859;28;20481;-72
2021/06/03 05:36:22;;;;;;;3.80;3.03;;;23.10;58.90;;;;;;5115928;28;20446;-72
2021/06/03 05:38:48;;;;;;;5.00;3.40;;;23.10;58.90;;;;;;5115977;28;20496;-72
2021/06/03 05:41:15;;;;;;;4.03;3.43;;;23.20;59.20;;;;;;5116812;28;20451;-72
2021/06/03 05:43:42;;;;;;;3.20;2.93;;;23.40;59.50;;;;;;5116315;28;20510;-72
2021/06/03 05:46:09;;;;;;;3.43;3.13;;;23.50;59.70;;;;;;5115508;28;20482;-72
2021/06/03 05:48:35;;;;;;;4.57;3.13;;;23.60;58.90;;;;;;5115524;28;20466;-72
2021/06/03 05:51:01;;;;;;;3.57;3.27;;;23.70;58.60;;;;;;5115184;28;20458;-72
2021/06/03 05:53:27;;;;;;;7.37;3.57;;;23.90;58.10;;;;;;5115729;28;20435;-71
2021/06/03 05:55:53;;;;;;;5.37;4.33;;;24.00;57.60;;;;;;5115214;28;20431;-72
2021/06/03 05:58:20;;;;;;;6.30;4.00;;;24.20;57.80;;;;;;5114829;28;20834;-72
2021/06/03 06:00:47;;;;;;;5.30;4.80;;;24.30;57.60;;;;;;5115027;28;20897;-72
2021/06/03 06:03:18;;;;;;;5.77;4.30;;;24.50;57.50;;;;;;5115195;28;20451;-72
2021/06/03 06:06:08;;;;;;;4.77;4.37;;;24.70;57.30;;;;;;5115370;28;20523;-72
2021/06/03 06:08:35;;;;;;;4.47;4.07;;;24.80;57.00;;;;;;5114791;28;20823;-72
2021/06/03 06:11:01;;;;;;;7.67;4.60;;;25.00;56.80;;;;;;5114831;28;20845;-72
2021/06/03 06:13:27;;;;;;;5.10;4.07;;;25.10;56.50;;;;;;5114946;28;20435;-72
2021/06/03 06:15:55;;;;;;;6.13;5.07;;;25.20;56.50;;;;;;5114910;28;20439;-72
2021/06/03 06:18:22;;;;;;;5.77;5.17;;;25.30;55.80;;;;;;5114799;28;20474;-72
2021/06/03 06:20:48;;;;;;;5.00;4.50;;;25.40;56.10;;;;;;5114848;28;20449;-72
2021/06/03 06:23:16;;;;;;;5.10;4.60;;;25.50;55.60;;;;;;5114856;28;20437;-72
2021/06/03 06:25:43;;;;;;;5.40;3.93;;;25.50;55.70;;;;;;5114690;28;20525;-72
2021/06/03 06:28:10;;;;;;;7.40;4.53;;;25.60;55.30;;;;;;5114704;28;20466;-72
2021/06/03 06:30:36;;;;;;;4.17;3.87;;;25.50;55.70;;;;;;5114550;28;20443;-72
2021/06/03 06:33:05;;;;;;;5.07;4.67;;;25.50;56.20;;;;;;5114617;28;20449;-72
2021/06/03 06:35:31;;;;;;;4.10;3.67;;;25.50;57.00;;;;;;5114803;28;20808;-72
2021/06/03 06:37:58;;;;;;;4.43;4.03;;;25.50;57.00;;;;;;5114749;28;20532;-72
2021/06/03 06:40:24;;;;;;;4.50;3.60;;;25.40;56.30;;;;;;5114631;28;20447;-72
2021/06/03 06:42:54;;;;;;;4.50;3.90;;;25.40;56.00;;;;;;5114471;28;20468;-72
2021/06/03 06:45:21;;;;;;;5.10;4.07;;;25.40;56.60;;;;;;5115572;28;20487;-72
2021/06/03 06:47:47;;;;;;;4.60;4.10;;;25.30;56.50;;;;;;5114575;28;20512;-71
2021/06/03 06:50:15;;;;;;;5.00;3.90;;;25.20;56.90;;;;;;5114708;28;20447;-71
2021/06/03 06:52:41;;;;;;;5.27;4.23;;;25.20;57.20;;;;;;5114853;28;20446;-71
2021/06/03 06:55:10;;;;;;;10.13;4.27;;;25.10;58.60;;;;;;5114339;28;20439;-71
2021/06/03 06:57:37;;;;;;;7.10;4.33;;;25.00;59.30;;;;;;5114330;28;20470;-71
2021/06/03 07:00:06;;;;;;;6.40;5.27;;;24.90;59.70;;;;;;5113886;28;20949;-71
2021/06/03 07:02:32;;;;;;;6.23;4.90;;;24.70;63.00;;;;;;5113958;28;20500;-71
2021/06/03 07:04:58;;;;;;;4.33;3.93;;;24.70;62.70;;;;;;5113444;28;20992;-71
2021/06/03 07:07:26;;;;;;;4.67;4.13;;;24.60;62.50;;;;;;5113726;28;20504;-71
2021/06/03 07:09:52;;;;;;;4.60;3.90;;;24.50;63.30;;;;;;5114141;28;20446;-71
2021/06/03 07:12:19;;;;;;;8.00;4.90;;;24.50;64.60;;;;;;5113742;28;20824;-71
2021/06/03 07:14:45;;;;;;;5.17;4.73;;;24.50;65.60;;;;;;5113997;28;20439;-71
2021/06/03 07:17:11;;;;;;;6.87;4.43;;;24.50;66.10;;;;;;5113912;28;20443;-71
2021/06/03 07:19:37;;;;;;;7.53;4.90;;;24.50;64.70;;;;;;5114933;28;20452;-71
2021/06/03 07:22:06;;;;;;;7.10;5.10;;;24.50;65.00;;;;;;5114812;28;20446;-72
2021/06/03 07:24:34;;;;;;;7.83;4.63;;;24.50;65.00;;;;;;5113923;28;20525;-67
2021/06/03 07:27:00;;;;;;;4.37;3.97;;;24.50;66.10;;;;;;5113929;28;20439;-67
2021/06/03 07:29:27;;;;;;;4.83;3.97;;;24.60;65.90;;;;;;5113784;28;20463;-67
2021/06/03 07:31:53;;;;;;;7.30;4.07;;;24.60;66.00;;;;;;5113659;28;20962;-67
2021/06/03 07:34:19;;;;;;;5.53;5.03;;;24.70;65.30;;;;;;5113863;28;20447;-67
2021/06/03 07:36:46;;;;;;;5.63;5.00;;;24.70;66.10;;;;;;5113829;28;20445;-68
2021/06/03 07:39:13;;;;;;;5.00;4.47;;;24.70;66.50;;;;;;5113448;28;20528;-67
2021/06/03 07:41:41;;;;;;;7.03;5.17;;;24.70;65.40;;;;;;5113539;28;20893;-67
2021/06/03 07:44:07;;;;;;;5.50;4.77;;;24.70;67.20;;;;;;5113751;28;20435;-68
2021/06/03 07:46:33;;;;;;;5.40;4.90;;;24.70;66.40;;;;;;5113330;28;20987;-67
2021/06/03 07:49:00;;;;;;;8.93;4.10;;;24.70;65.70;;;;;;5113539;28;20498;-67
2021/06/03 07:51:26;;;;;;;8.17;5.20;;;24.80;66.20;;;;;;5113640;28;20446;-67
2021/06/03 07:53:53;;;;;;;6.60;4.97;;;24.90;66.40;;;;;;5113612;28;20438;-67
2021/06/03 07:56:19;;;;;;;5.03;4.63;;;24.90;66.70;;;;;;5113617;28;20435;-67
2021/06/03 07:58:47;;;;;;;4.90;4.50;;;24.90;67.10;;;;;;5113201;28;20482;-67
2021/06/03 08:01:13;;;;;;;4.23;3.93;;;24.90;66.00;;;;;;5113543;28;20476;-67
2021/06/03 08:03:41;;;;;;;8.17;4.97;;;24.90;65.00;;;;;;5113501;28;20454;-67
2021/06/03 08:06:08;;;;;;;5.10;4.60;;;25.00;65.30;;;;;;5113119;28;20573;-67
2021/06/03 08:08:36;;;;;;;8.03;4.70;;;25.10;64.90;;;;;;5113435;28;20516;-68
2021/06/03 08:11:03;;;;;;;5.13;4.57;;;25.10;64.90;;;;;;5113601;28;20471;-68
2021/06/03 08:13:30;;;;;;;5.57;4.43;;;25.20;65.40;;;;;;5113496;28;20434;-68
2021/06/03 08:15:58;;;;;;;5.53;4.67;;;25.20;64.80;;;;;;5116782;28;20443;-68
2021/06/03 08:18:24;;;;;;;4.83;4.43;;;25.30;65.20;;;;;;5116957;28;20462;-68
2021/06/03 08:20:56;;;;;;;5.53;4.93;;;25.30;64.30;;;;;;5117232;28;20445;-68
2021/06/03 08:23:23;;;;;;;8.03;4.43;;;25.30;64.30;;;;;;5117180;28;20466;-68
2021/06/03 08:25:50;;;;;;;5.37;4.87;;;25.40;64.70;;;;;;5117226;28;20478;-73
2021/06/03 08:28:16;;;;;;;4.93;4.40;;;25.50;64.20;;;;;;5116715;28;20523;-72
2021/06/03 08:30:43;;;;;;;6.03;5.17;;;25.70;63.30;;;;;;5117001;28;20446;-73
2021/06/03 08:33:11;;;;;;;6.00;5.50;;;25.80;63.80;;;;;;5116676;28;20936;-73
2021/06/03 08:35:38;;;;;;;6.27;5.60;;;25.90;62.90;;;;;;5116990;28;20450;-73
2021/06/03 08:38:06;;;;;;;9.07;6.40;;;25.90;63.90;;;;;;5116841;28;20481;-73
2021/06/03 08:40:34;;;;;;;8.20;5.10;;;26.00;63.50;;;;;;5116621;28;20431;-73
2021/06/03 08:43:04;;;;;;;8.23;5.53;;;26.00;63.60;;;;;;5116862;28;20439;-73
2021/06/03 08:45:35;;;;;;;8.27;5.50;;;26.00;64.50;;;;;;5117339;28;20467;-73
2021/06/03 08:48:01;;;;;;;6.60;5.77;;;26.00;65.30;;;;;;5116671;28;20459;-73
2021/06/03 08:50:31;;;;;;;8.63;5.47;;;25.90;65.10;;;;;;5116766;28;20470;-73
2021/06/03 08:52:58;;;;;;;5.30;4.80;;;25.90;65.60;;;;;;5117639;28;20434;-73
2021/06/03 08:58:12;;;;;;;7.37;4.73;;;25.80;65.30;;;;;;5116319;28;20810;-73
2021/06/03 09:00:39;;;;;;;5.87;5.27;;;25.80;65.10;;;;;;5116507;28;20824;-73
2021/06/03 09:03:06;;;;;;;5.20;4.70;;;25.90;65.10;;;;;;5116630;28;20447;-73
2021/06/03 09:05:34;;;;;;;4.50;4.10;;;25.80;65.30;;;;;;5116598;28;20467;-74
2021/06/03 09:08:15;;;;;;;3.93;3.43;;;25.80;65.40;;;;;;5116350;28;20459;-73
2021/06/03 09:10:43;;;;;;;4.50;3.10;;;25.70;65.00;;;;;;5116339;28;20427;-73
2021/06/03 09:13:14;;;;;;;3.43;3.03;;;25.60;65.30;;;;;;5116290;28;20454;-73
2021/06/03 09:15:43;;;;;;;8.17;4.10;;;25.70;66.40;;;;;;5116258;28;20431;-73
2021/06/03 09:18:11;;;;;;;5.10;4.00;;;25.90;66.80;;;;;;5116094;28;20462;-73
2021/06/03 09:20:42;;;;;;;4.00;3.60;;;26.10;65.90;;;;;;5116071;28;20498;-73
2021/06/03 09:23:23;;;;;;;4.97;3.83;;;26.20;65.90;;;;;;5116218;27;20477;-73
2021/06/03 09:25:50;;;;;;;4.43;3.90;;;26.30;65.70;;;;;;5115631;28;20462;-73
2021/06/03 09:28:30;;;;;;;4.83;3.90;;;26.40;64.70;;;;;;5116466;28;20463;-73
2021/06/03 09:31:04;;;;;;;3.20;3.00;;;26.30;63.20;;;;;;5117887;28;20427;-73
2021/06/03 09:33:42;;;;;;;4.10;3.70;;;26.10;63.10;;;;;;5116343;28;20435;-73
2021/06/03 09:36:13;;;;;;;4.23;3.40;;;25.90;64.60;;;;;;5115617;28;20431;-73
2021/06/03 09:38:57;;;;;;;4.00;3.60;;;25.70;65.00;;;;;;5115703;28;20463;-73
2021/06/03 09:41:25;;;;;;;3.60;3.30;;;25.60;65.50;;;;;;5115778;28;20476;-73
2021/06/03 09:44:08;;;;;;;4.70;3.90;;;25.50;65.80;;;;;;5115334;28;20447;-73
2021/06/03 09:46:36;;;;;;;5.00;3.33;;;25.40;66.50;;;;;;5115620;28;20470;-74
2021/06/03 09:49:04;;;;;;;3.33;2.80;;;25.50;66.60;;;;;;5115432;28;20463;-73
2021/06/03 09:51:36;;;;;;;4.20;3.67;;;25.60;66.20;;;;;;5115620;28;20451;-73
2021/06/03 09:54:06;;;;;;;4.07;3.20;;;25.80;65.90;;;;;;5116386;28;20419;-73
2021/06/03 09:56:34;;;;;;;4.70;3.20;;;26.00;65.10;;;;;;5115495;28;20439;-73
2021/06/03 09:59:02;;;;;;;3.57;3.27;;;26.30;64.60;;;;;;5115023;28;20497;-74
2021/06/03 10:01:46;;;;;;;5.20;3.00;;;26.50;62.90;;;;;;5115304;28;20457;-74
2021/06/03 10:04:14;;;;;;;4.60;3.80;;;26.80;61.90;;;;;;5115306;28;20804;-73
2021/06/03 10:07:13;;;;;;;4.07;3.40;;;27.00;61.30;;;;;;5114766;28;21071;-73
2021/06/03 10:09:43;;;;;;;5.00;3.80;;;27.20;60.40;;;;;;5069861;27;20852;-73
2021/06/03 10:12:11;;;;;;;3.73;3.43;;;27.50;59.90;;;;;;5114880;28;20427;-73
2021/06/03 10:14:38;;;;;;;4.63;3.93;;;27.70;58.90;;;;;;5115186;28;20438;-73
2021/06/03 10:17:19;;;;;;;4.67;4.23;;;27.80;58.00;;;;;;5114878;28;20438;-73
2021/06/03 10:19:47;;;;;;;6.43;3.90;;;27.90;58.30;;;;;;5114893;28;20427;-73
2021/06/03 10:22:19;;;;;;;4.73;4.30;;;28.00;58.00;;;;;;5114792;28;20454;-73
2021/06/03 10:25:05;;;;;;;4.13;3.83;;;28.00;57.90;;;;;;5114829;28;20431;-73
2021/06/03 10:27:33;;;;;;;6.50;4.20;;;27.90;57.10;;;;;;5114420;28;20999;-73
2021/06/03 10:30:01;;;;;;;5.00;4.03;;;28.00;58.70;;;;;;5114711;28;20556;-73
2021/06/03 10:32:30;;;;;;;6.87;4.10;;;28.00;58.00;;;;;;5114643;28;20447;-73
2021/06/03 10:34:56;;;;;;;3.23;2.93;;;28.10;57.70;;;;;;5114665;28;20438;-73
2021/06/03 10:37:25;;;;;;;4.20;3.80;;;28.10;57.40;;;;;;5114322;28;20469;-73
2021/06/03 10:39:55;;;;;;;4.17;3.73;;;28.10;57.60;;;;;;5114212;28;20467;-73
2021/06/03 10:42:22;;;;;;;3.90;3.53;;;28.10;57.30;;;;;;5114490;28;20451;-73
2021/06/03 10:44:48;;;;;;;4.00;3.60;;;28.20;56.50;;;;;;5114161;28;20495;-73
2021/06/03 10:47:16;;;;;;;4.33;3.70;;;28.30;56.10;;;;;;5114246;28;20509;-73
2021/06/03 10:49:44;;;;;;;8.00;4.13;;;28.50;56.50;;;;;;5114400;28;20446;-73
2021/06/03 10:52:13;;;;;;;6.67;4.27;;;28.60;55.70;;;;;;5114321;28;20447;-73
2021/06/03 10:54:52;;;;;;;4.00;3.57;;;28.70;56.40;;;;;;5113966;28;20439;-73
2021/06/03 10:57:21;;;;;;;5.87;3.60;;;29.00;56.00;;;;;;5114226;28;20442;-72
2021/06/03 10:59:48;;;;;;;5.03;4.17;;;29.10;55.20;;;;;;5113798;28;20470;-73
2021/06/03 11:02:15;;;;;;;6.30;4.20;;;29.30;54.50;;;;;;5114138;28;20539;-73
2021/06/03 11:04:44;;;;;;;4.73;3.70;;;29.40;54.60;;;;;;5114169;28;20453;-73
2021/06/03 11:07:11;;;;;;;4.53;4.00;;;29.60;53.70;;;;;;5114375;28;20478;-72
2021/06/03 11:09:39;;;;;;;5.00;4.60;;;29.90;53.70;;;;;;5114058;28;20443;-73
2021/06/03 11:12:16;;;;;;;5.83;4.80;;;30.10;54.20;;;;;;5113874;28;20471;-73
2021/06/03 11:15:13;;;;;;;4.77;4.37;;;30.50;52.60;;;;;;5113780;28;20860;-73
2021/06/03 11:17:52;;;;;;;7.50;5.00;;;30.70;51.10;;;;;;5114035;28;20474;-73
2021/06/03 11:20:36;;;;;;;4.60;4.30;;;30.70;50.80;;;;;;5114006;28;20427;-73
2021/06/03 11:23:57;;;;;;;7.03;5.70;;;30.90;50.10;;;;;;5114000;28;20434;-73
2021/06/03 11:26:49;;;;;;;6.90;5.87;;;31.10;50.00;;;;;;5114086;28;20516;-74
2021/06/03 11:29:20;;;;;;;5.10;4.47;;;31.00;49.40;;;;;;5113963;28;21056;-73
2021/06/03 11:31:47;;;;;;;6.60;5.00;;;30.70;49.60;;;;;;5114594;28;20799;-73
2021/06/03 11:34:19;;;;;;;6.10;5.60;;;30.50;50.20;;;;;;5113866;28;20431;-73
2021/06/03 11:36:57;;;;;;;5.80;5.30;;;30.40;51.00;;;;;;5113861;28;20419;-73
2021/06/03 11:39:40;;;;;;;5.33;4.93;;;30.10;51.20;;;;;;5113454;28;20971;-73
2021/06/03 11:42:27;;;;;;;7.37;5.50;;;29.90;51.10;;;;;;5113509;28;20901;-73
2021/06/03 11:45:20;;;;;;;5.37;4.87;;;29.70;51.80;;;;;;5113441;28;20852;-74
2021/06/03 11:48:09;;;;;;;5.93;5.30;;;29.60;51.70;;;;;;5113806;28;20455;-73
2021/06/03 11:51:06;;;;;;;5.60;4.30;;;29.40;52.20;;;;;;5116899;28;20423;-73
2021/06/03 11:53:46;;;;;;;6.10;5.60;;;29.40;52.00;;;;;;5118654;28;20903;-74
2021/06/03 11:56:19;;;;;;;6.70;6.10;;;29.50;52.80;;;;;;5118462;28;20505;-73
2021/06/03 11:58:49;;;;;;;7.10;5.73;;;29.70;52.10;;;;;;5118162;28;20475;-73
2021/06/03 12:01:33;;;;;;;4.97;4.43;;;30.40;51.60;;;;;;5118632;28;20447;-73
2021/06/03 12:04:10;;;;;;;4.57;4.17;;;31.30;49.40;;;;;;5118342;28;20422;-73
2021/06/03 12:06:38;;;;;;;6.07;5.30;;;32.40;48.30;;;;;;5118285;28;20481;-73
2021/06/03 12:09:17;;;;;;;5.33;4.80;;;33.70;45.90;;;;;;5118038;28;20465;-74
2021/06/03 12:11:45;;;;;;;8.43;7.70;;;34.80;43.10;;;;;;5117961;28;20908;-73
2021/06/03 12:14:14;;;;;;;5.60;5.20;;;35.20;40.00;;;;;;5118064;28;20437;-73
2021/06/03 12:16:44;;;;;;;5.30;4.80;;;35.20;39.60;;;;;;5117994;28;20446;-73
2021/06/03 12:19:12;;;;;;;8.00;6.20;;;35.30;40.20;;;;;;5117348;28;20462;-73
2021/06/03 12:21:39;;;;;;;7.97;7.17;;;35.30;40.20;;;;;;5117306;28;20426;-73
2021/06/03 12:24:06;;;;;;;5.67;5.07;;;35.20;40.90;;;;;;5117283;28;20430;-74
2021/06/03 12:26:36;;;;;;;6.60;6.10;;;34.70;40.80;;;;;;5117103;28;20462;-73
2021/06/03 12:29:02;;;;;;;7.00;6.40;;;34.20;40.40;;;;;;5117002;28;20470;-73
2021/06/03 12:31:29;;;;;;;5.80;5.30;;;33.50;41.60;;;;;;5116980;28;20446;-73
2021/06/03 12:33:58;;;;;;;6.00;5.50;;;32.70;42.70;;;;;;5117028;28;20427;-73
2021/06/03 12:36:26;;;;;;;5.40;4.90;;;32.00;44.30;;;;;;5116941;28;20477;-73
2021/06/03 12:38:55;;;;;;;5.60;5.00;;;31.10;46.50;;;;;;5116521;28;20968;-73
2021/06/03 12:41:26;;;;;;;8.40;6.43;;;30.50;48.00;;;;;;5116895;28;20431;-73
2021/06/03 12:43:54;;;;;;;5.23;4.83;;;30.10;50.60;;;;;;5116830;28;20463;-73
2021/06/03 12:46:35;;;;;;;6.50;5.47;;;29.70;51.40;;;;;;5116637;28;20485;-73
2021/06/03 12:49:09;;;;;;;6.10;5.50;;;29.30;52.50;;;;;;5116698;28;20471;-73
2021/06/03 12:51:38;;;;;;;6.70;5.70;;;29.10;53.60;;;;;;5116409;28;20920;-73
2021/06/03 12:54:04;;;;;;;5.77;5.27;;;28.70;54.90;;;;;;5116245;28;20949;-73
2021/06/03 12:56:32;;;;;;;6.13;5.53;;;28.50;55.50;;;;;;5116576;28;20442;-73
2021/06/03 12:58:58;;;;;;;8.43;5.13;;;28.20;56.10;;;;;;5116188;27;20484;-72
2021/06/03 13:01:26;;;;;;;6.57;4.60;;;27.90;57.10;;;;;;5115605;28;20446;-72